sensor_id;sensor_type;location;lat;lon;timestamp;P1;durP1;ratioP1;P2;durP2;ratioP2
69878;SDS011;57161;43.136;24.706;2023-02-15T00:00:19;54.22;;;30.00;;
69878;SDS011;57161;43.136;24.706;2023-02-15T00:02:45;48.70;;;28.10;;
69878;SDS011;57161;43.136;24.706;2023-02-15T00:05:10;49.13;;;28.05;;
69878;SDS011;57161;43.136;24.706;2023-02-15T00:07:36;47.40;;;25.67;;
69878;SDS011;57161;43.136;24.706;2023-02-15T00:10:01;44.88;;;25.50;;
69878;SDS011;57161;43.136;24.706;2023-02-15T00:12:27;45.17;;;25.65;;
69878;SDS011;57161;43.136;24.706;2023-02-15T00:14:52;43.60;;;25.70;;
69878;SDS011;57161;43.136;24.706;2023-02-15T00:17:18;47.08;;;27.27;;
69878;SDS011;57161;43.136;24.706;2023-02-15T00:19:43;50.10;;;28.45;;
69878;SDS011;57161;43.136;24.706;2023-02-15T00:22:09;47.97;;;27.02;;
69878;SDS011;57161;43.136;24.706;2023-02-15T00:24:34;45.50;;;25.77;;
69878;SDS011;57161;43.136;24.706;2023-02-15T00:27:00;41.88;;;24.85;;
69878;SDS011;57161;43.136;24.706;2023-02-15T00:29:25;45.17;;;25.65;;
69878;SDS011;57161;43.136;24.706;2023-02-15T00:31:51;45.25;;;26.42;;
69878;SDS011;57161;43.136;24.706;2023-02-15T00:34:24;51.08;;;27.67;;
69878;SDS011;57161;43.136;24.706;2023-02-15T00:36:50;123.88;;;58.33;;
69878;SDS011;57161;43.136;24.706;2023-02-15T00:39:17;69.30;;;36.13;;
69878;SDS011;57161;43.136;24.706;2023-02-15T00:41:44;86.72;;;43.65;;
69878;SDS011;57161;43.136;24.706;2023-02-15T00:44:11;68.70;;;35.88;;
69878;SDS011;57161;43.136;24.706;2023-02-15T00:46:36;75.03;;;39.97;;
69878;SDS011;57161;43.136;24.706;2023-02-15T00:49:03;56.80;;;30.38;;
69878;SDS011;57161;43.136;24.706;2023-02-15T00:51:29;55.17;;;31.00;;
69878;SDS011;57161;43.136;24.706;2023-02-15T00:53:54;52.17;;;28.95;;
69878;SDS011;57161;43.136;24.706;2023-02-15T00:56:20;48.42;;;27.20;;
69878;SDS011;57161;43.136;24.706;2023-02-15T00:58:46;51.67;;;27.30;;
69878;SDS011;57161;43.136;24.706;2023-02-15T01:01:16;51.15;;;26.90;;
69878;SDS011;57161;43.136;24.706;2023-02-15T01:03:43;48.78;;;26.92;;
69878;SDS011;57161;43.136;24.706;2023-02-15T01:06:09;51.03;;;27.25;;
69878;SDS011;57161;43.136;24.706;2023-02-15T01:08:35;43.72;;;23.55;;
69878;SDS011;57161;43.136;24.706;2023-02-15T01:11:09;48.35;;;24.30;;
69878;SDS011;57161;43.136;24.706;2023-02-15T01:13:40;38.63;;;21.20;;
69878;SDS011;57161;43.136;24.706;2023-02-15T01:16:06;37.75;;;21.17;;
69878;SDS011;57161;43.136;24.706;2023-02-15T01:18:32;41.33;;;22.40;;
69878;SDS011;57161;43.136;24.706;2023-02-15T01:20:58;40.50;;;23.30;;
69878;SDS011;57161;43.136;24.706;2023-02-15T01:23:24;40.22;;;22.40;;
69878;SDS011;57161;43.136;24.706;2023-02-15T01:25:50;37.88;;;21.75;;
69878;SDS011;57161;43.136;24.706;2023-02-15T01:28:15;38.40;;;22.88;;
69878;SDS011;57161;43.136;24.706;2023-02-15T01:30:41;41.80;;;23.88;;
69878;SDS011;57161;43.136;24.706;2023-02-15T01:33:06;40.90;;;24.88;;
69878;SDS011;57161;43.136;24.706;2023-02-15T01:35:32;40.75;;;24.27;;
69878;SDS011;57161;43.136;24.706;2023-02-15T01:37:58;42.38;;;23.42;;
69878;SDS011;57161;43.136;24.706;2023-02-15T01:40:23;39.97;;;22.80;;
69878;SDS011;57161;43.136;24.706;2023-02-15T01:42:50;41.03;;;23.25;;
69878;SDS011;57161;43.136;24.706;2023-02-15T01:47:54;38.63;;;22.23;;
69878;SDS011;57161;43.136;24.706;2023-02-15T01:55:36;43.80;;;23.83;;
69878;SDS011;57161;43.136;24.706;2023-02-15T01:58:05;45.10;;;23.95;;
69878;SDS011;57161;43.136;24.706;2023-02-15T02:00:32;45.80;;;24.40;;
69878;SDS011;57161;43.136;24.706;2023-02-15T02:02:59;41.03;;;23.30;;
69878;SDS011;57161;43.136;24.706;2023-02-15T02:05:25;43.85;;;24.02;;
69878;SDS011;57161;43.136;24.706;2023-02-15T02:07:51;39.72;;;23.35;;
69878;SDS011;57161;43.136;24.706;2023-02-15T02:10:21;42.20;;;24.73;;
69878;SDS011;57161;43.136;24.706;2023-02-15T02:12:48;40.50;;;23.08;;
69878;SDS011;57161;43.136;24.706;2023-02-15T02:15:17;39.83;;;22.25;;
69878;SDS011;57161;43.136;24.706;2023-02-15T02:18:10;34.50;;;20.73;;
69878;SDS011;57161;43.136;24.706;2023-02-15T02:29:41;33.15;;;20.27;;
69878;SDS011;57161;43.136;24.706;2023-02-15T02:38:08;77.10;;;34.17;;
69878;SDS011;57161;43.136;24.706;2023-02-15T02:43:31;38.40;;;21.90;;
69878;SDS011;57161;43.136;24.706;2023-02-15T02:45:59;38.22;;;21.60;;
69878;SDS011;57161;43.136;24.706;2023-02-15T02:48:30;36.45;;;21.85;;
69878;SDS011;57161;43.136;24.706;2023-02-15T02:50:58;33.38;;;19.55;;
69878;SDS011;57161;43.136;24.706;2023-02-15T02:53:24;33.33;;;19.73;;
69878;SDS011;57161;43.136;24.706;2023-02-15T02:55:55;34.53;;;20.25;;
69878;SDS011;57161;43.136;24.706;2023-02-15T03:03:45;33.85;;;19.63;;
69878;SDS011;57161;43.136;24.706;2023-02-15T03:06:24;31.67;;;18.15;;
69878;SDS011;57161;43.136;24.706;2023-02-15T03:09:08;33.05;;;18.55;;
69878;SDS011;57161;43.136;24.706;2023-02-15T03:11:46;32.75;;;18.85;;
69878;SDS011;57161;43.136;24.706;2023-02-15T03:14:14;29.77;;;17.67;;
69878;SDS011;57161;43.136;24.706;2023-02-15T03:16:41;35.75;;;18.67;;
69878;SDS011;57161;43.136;24.706;2023-02-15T03:19:12;33.63;;;18.98;;
69878;SDS011;57161;43.136;24.706;2023-02-15T03:21:42;36.08;;;20.10;;
69878;SDS011;57161;43.136;24.706;2023-02-15T03:24:23;36.45;;;19.40;;
69878;SDS011;57161;43.136;24.706;2023-02-15T03:26:56;31.15;;;18.90;;
69878;SDS011;57161;43.136;24.706;2023-02-15T03:29:23;31.45;;;18.88;;
69878;SDS011;57161;43.136;24.706;2023-02-15T03:31:53;33.38;;;18.13;;
69878;SDS011;57161;43.136;24.706;2023-02-15T03:34:24;33.20;;;19.02;;
69878;SDS011;57161;43.136;24.706;2023-02-15T03:36:58;31.85;;;18.73;;
69878;SDS011;57161;43.136;24.706;2023-02-15T03:39:35;30.90;;;18.40;;
69878;SDS011;57161;43.136;24.706;2023-02-15T03:42:31;32.00;;;19.02;;
69878;SDS011;57161;43.136;24.706;2023-02-15T03:47:34;34.38;;;18.70;;
69878;SDS011;57161;43.136;24.706;2023-02-15T03:50:08;31.67;;;18.73;;
69878;SDS011;57161;43.136;24.706;2023-02-15T03:53:08;33.60;;;18.40;;
69878;SDS011;57161;43.136;24.706;2023-02-15T03:58:03;34.75;;;19.08;;
69878;SDS011;57161;43.136;24.706;2023-02-15T04:00:49;35.80;;;19.30;;
69878;SDS011;57161;43.136;24.706;2023-02-15T04:03:50;31.45;;;17.98;;
69878;SDS011;57161;43.136;24.706;2023-02-15T04:06:22;30.00;;;17.67;;
69878;SDS011;57161;43.136;24.706;2023-02-15T04:08:47;34.42;;;19.23;;
69878;SDS011;57161;43.136;24.706;2023-02-15T04:11:31;35.22;;;18.88;;
69878;SDS011;57161;43.136;24.706;2023-02-15T04:13:57;37.13;;;20.77;;
69878;SDS011;57161;43.136;24.706;2023-02-15T04:16:23;45.13;;;25.20;;
69878;SDS011;57161;43.136;24.706;2023-02-15T04:18:49;41.10;;;22.40;;
69878;SDS011;57161;43.136;24.706;2023-02-15T04:21:33;41.97;;;22.48;;
69878;SDS011;57161;43.136;24.706;2023-02-15T04:24:17;38.05;;;22.10;;
69878;SDS011;57161;43.136;24.706;2023-02-15T04:27:01;36.08;;;20.65;;
69878;SDS011;57161;43.136;24.706;2023-02-15T04:29:28;39.10;;;22.20;;
69878;SDS011;57161;43.136;24.706;2023-02-15T04:31:55;39.83;;;21.95;;
69878;SDS011;57161;43.136;24.706;2023-02-15T04:34:22;57.65;;;32.05;;
69878;SDS011;57161;43.136;24.706;2023-02-15T04:36:47;53.55;;;31.10;;
69878;SDS011;57161;43.136;24.706;2023-02-15T04:39:13;55.58;;;32.90;;
69878;SDS011;57161;43.136;24.706;2023-02-15T04:41:40;50.97;;;30.55;;
69878;SDS011;57161;43.136;24.706;2023-02-15T04:44:06;57.00;;;32.22;;
69878;SDS011;57161;43.136;24.706;2023-02-15T04:46:31;60.97;;;30.75;;
69878;SDS011;57161;43.136;24.706;2023-02-15T04:48:57;63.00;;;31.67;;
69878;SDS011;57161;43.136;24.706;2023-02-15T04:51:23;56.53;;;29.77;;
69878;SDS011;57161;43.136;24.706;2023-02-15T04:53:49;52.10;;;27.88;;
69878;SDS011;57161;43.136;24.706;2023-02-15T04:56:14;62.40;;;31.80;;
69878;SDS011;57161;43.136;24.706;2023-02-15T04:58:40;57.60;;;28.85;;
69878;SDS011;57161;43.136;24.706;2023-02-15T05:01:09;51.15;;;26.67;;
69878;SDS011;57161;43.136;24.706;2023-02-15T05:03:35;57.05;;;28.40;;
69878;SDS011;57161;43.136;24.706;2023-02-15T05:06:00;48.72;;;27.40;;
69878;SDS011;57161;43.136;24.706;2023-02-15T05:08:26;53.95;;;29.20;;
69878;SDS011;57161;43.136;24.706;2023-02-15T05:10:52;52.28;;;27.50;;
69878;SDS011;57161;43.136;24.706;2023-02-15T05:13:17;47.75;;;25.58;;
69878;SDS011;57161;43.136;24.706;2023-02-15T05:15:49;46.95;;;25.88;;
69878;SDS011;57161;43.136;24.706;2023-02-15T05:18:16;47.17;;;26.13;;
69878;SDS011;57161;43.136;24.706;2023-02-15T05:20:43;49.78;;;27.05;;
69878;SDS011;57161;43.136;24.706;2023-02-15T05:23:09;49.75;;;27.45;;
69878;SDS011;57161;43.136;24.706;2023-02-15T05:25:34;52.22;;;27.05;;
69878;SDS011;57161;43.136;24.706;2023-02-15T05:28:18;46.03;;;25.55;;
69878;SDS011;57161;43.136;24.706;2023-02-15T05:30:50;48.00;;;26.98;;
69878;SDS011;57161;43.136;24.706;2023-02-15T05:33:23;47.35;;;26.73;;
69878;SDS011;57161;43.136;24.706;2023-02-15T05:35:49;46.53;;;25.45;;
69878;SDS011;57161;43.136;24.706;2023-02-15T05:38:14;52.65;;;27.63;;
69878;SDS011;57161;43.136;24.706;2023-02-15T05:40:40;58.53;;;33.03;;
69878;SDS011;57161;43.136;24.706;2023-02-15T05:43:05;66.43;;;36.97;;
69878;SDS011;57161;43.136;24.706;2023-02-15T05:45:31;54.92;;;31.67;;
69878;SDS011;57161;43.136;24.706;2023-02-15T05:47:56;51.60;;;27.98;;
69878;SDS011;57161;43.136;24.706;2023-02-15T05:50:23;46.75;;;25.98;;
69878;SDS011;57161;43.136;24.706;2023-02-15T05:52:49;43.47;;;24.10;;
69878;SDS011;57161;43.136;24.706;2023-02-15T05:55:14;41.78;;;20.90;;
69878;SDS011;57161;43.136;24.706;2023-02-15T05:57:40;37.97;;;20.25;;
69878;SDS011;57161;43.136;24.706;2023-02-15T06:00:06;39.83;;;21.08;;
69878;SDS011;57161;43.136;24.706;2023-02-15T06:02:35;34.05;;;19.45;;
69878;SDS011;57161;43.136;24.706;2023-02-15T06:05:02;37.88;;;20.27;;
69878;SDS011;57161;43.136;24.706;2023-02-15T06:07:29;31.58;;;18.45;;
69878;SDS011;57161;43.136;24.706;2023-02-15T06:09:54;36.75;;;21.70;;
69878;SDS011;57161;43.136;24.706;2023-02-15T06:12:20;32.03;;;18.92;;
69878;SDS011;57161;43.136;24.706;2023-02-15T06:14:46;32.55;;;18.00;;
69878;SDS011;57161;43.136;24.706;2023-02-15T06:17:11;35.90;;;19.50;;
69878;SDS011;57161;43.136;24.706;2023-02-15T06:19:37;29.83;;;17.23;;
69878;SDS011;57161;43.136;24.706;2023-02-15T06:22:02;32.40;;;18.25;;
69878;SDS011;57161;43.136;24.706;2023-02-15T06:24:28;28.38;;;17.63;;
69878;SDS011;57161;43.136;24.706;2023-02-15T06:26:53;28.55;;;17.45;;
69878;SDS011;57161;43.136;24.706;2023-02-15T06:29:19;29.42;;;17.23;;
69878;SDS011;57161;43.136;24.706;2023-02-15T06:31:44;28.52;;;17.20;;
69878;SDS011;57161;43.136;24.706;2023-02-15T06:34:10;30.90;;;17.67;;
69878;SDS011;57161;43.136;24.706;2023-02-15T06:36:35;28.70;;;16.77;;
69878;SDS011;57161;43.136;24.706;2023-02-15T06:39:02;28.13;;;17.35;;
69878;SDS011;57161;43.136;24.706;2023-02-15T06:41:28;29.75;;;17.20;;
69878;SDS011;57161;43.136;24.706;2023-02-15T06:43:53;31.55;;;17.45;;
69878;SDS011;57161;43.136;24.706;2023-02-15T06:46:19;32.63;;;17.75;;
69878;SDS011;57161;43.136;24.706;2023-02-15T06:48:44;31.42;;;18.48;;
69878;SDS011;57161;43.136;24.706;2023-02-15T06:51:09;29.67;;;17.70;;
69878;SDS011;57161;43.136;24.706;2023-02-15T06:53:35;29.85;;;17.83;;
69878;SDS011;57161;43.136;24.706;2023-02-15T06:56:01;27.88;;;16.85;;
69878;SDS011;57161;43.136;24.706;2023-02-15T06:58:28;29.80;;;18.23;;
69878;SDS011;57161;43.136;24.706;2023-02-15T07:00:53;28.08;;;16.33;;
69878;SDS011;57161;43.136;24.706;2023-02-15T07:03:19;26.77;;;16.52;;
69878;SDS011;57161;43.136;24.706;2023-02-15T07:05:44;34.10;;;17.95;;
69878;SDS011;57161;43.136;24.706;2023-02-15T07:08:10;30.42;;;16.92;;
69878;SDS011;57161;43.136;24.706;2023-02-15T07:10:36;30.58;;;17.05;;
69878;SDS011;57161;43.136;24.706;2023-02-15T07:13:01;25.05;;;15.90;;
69878;SDS011;57161;43.136;24.706;2023-02-15T07:15:27;30.00;;;17.63;;
69878;SDS011;57161;43.136;24.706;2023-02-15T07:17:52;28.80;;;17.58;;
69878;SDS011;57161;43.136;24.706;2023-02-15T07:20:22;28.55;;;16.13;;
69878;SDS011;57161;43.136;24.706;2023-02-15T07:22:48;29.08;;;16.10;;
69878;SDS011;57161;43.136;24.706;2023-02-15T07:25:14;28.00;;;16.27;;
69878;SDS011;57161;43.136;24.706;2023-02-15T07:27:41;30.60;;;17.50;;
69878;SDS011;57161;43.136;24.706;2023-02-15T07:30:08;26.65;;;15.98;;
69878;SDS011;57161;43.136;24.706;2023-02-15T07:32:35;28.02;;;15.23;;
69878;SDS011;57161;43.136;24.706;2023-02-15T07:35:00;26.73;;;15.35;;
69878;SDS011;57161;43.136;24.706;2023-02-15T07:37:26;29.50;;;15.88;;
69878;SDS011;57161;43.136;24.706;2023-02-15T07:39:52;24.40;;;15.20;;
69878;SDS011;57161;43.136;24.706;2023-02-15T07:42:18;26.38;;;15.48;;
69878;SDS011;57161;43.136;24.706;2023-02-15T07:44:45;27.38;;;14.95;;
69878;SDS011;57161;43.136;24.706;2023-02-15T07:47:13;26.38;;;15.32;;
69878;SDS011;57161;43.136;24.706;2023-02-15T07:49:38;27.40;;;15.80;;
69878;SDS011;57161;43.136;24.706;2023-02-15T07:52:04;26.45;;;15.50;;
69878;SDS011;57161;43.136;24.706;2023-02-15T07:54:29;25.40;;;15.30;;
69878;SDS011;57161;43.136;24.706;2023-02-15T07:56:55;30.15;;;17.15;;
69878;SDS011;57161;43.136;24.706;2023-02-15T07:59:20;26.00;;;14.70;;
69878;SDS011;57161;43.136;24.706;2023-02-15T08:01:46;46.22;;;27.00;;
69878;SDS011;57161;43.136;24.706;2023-02-15T08:04:11;26.17;;;15.30;;
69878;SDS011;57161;43.136;24.706;2023-02-15T08:06:37;28.30;;;16.20;;
69878;SDS011;57161;43.136;24.706;2023-02-15T08:09:04;28.25;;;15.77;;
69878;SDS011;57161;43.136;24.706;2023-02-15T08:11:32;29.42;;;17.30;;
69878;SDS011;57161;43.136;24.706;2023-02-15T08:16:44;27.98;;;16.38;;
69878;SDS011;57161;43.136;24.706;2023-02-15T08:19:16;26.45;;;15.63;;
69878;SDS011;57161;43.136;24.706;2023-02-15T08:21:47;31.85;;;17.90;;
69878;SDS011;57161;43.136;24.706;2023-02-15T08:24:35;25.42;;;14.93;;
69878;SDS011;57161;43.136;24.706;2023-02-15T08:27:02;31.00;;;15.55;;
69878;SDS011;57161;43.136;24.706;2023-02-15T08:29:29;27.58;;;16.25;;
69878;SDS011;57161;43.136;24.706;2023-02-15T08:31:56;32.67;;;16.05;;
69878;SDS011;57161;43.136;24.706;2023-02-15T08:34:26;26.02;;;15.18;;
69878;SDS011;57161;43.136;24.706;2023-02-15T08:36:52;23.70;;;15.20;;
69878;SDS011;57161;43.136;24.706;2023-02-15T08:39:18;26.05;;;14.25;;
69878;SDS011;57161;43.136;24.706;2023-02-15T08:41:44;25.73;;;15.07;;
69878;SDS011;57161;43.136;24.706;2023-02-15T08:44:11;27.48;;;16.45;;
69878;SDS011;57161;43.136;24.706;2023-02-15T08:46:38;23.48;;;14.20;;
69878;SDS011;57161;43.136;24.706;2023-02-15T08:49:06;23.83;;;14.43;;
69878;SDS011;57161;43.136;24.706;2023-02-15T08:51:33;26.40;;;15.35;;
69878;SDS011;57161;43.136;24.706;2023-02-15T08:54:05;28.65;;;16.98;;
69878;SDS011;57161;43.136;24.706;2023-02-15T08:56:34;28.02;;;16.35;;
69878;SDS011;57161;43.136;24.706;2023-02-15T08:59:02;27.65;;;16.35;;
69878;SDS011;57161;43.136;24.706;2023-02-15T09:01:29;26.02;;;15.23;;
69878;SDS011;57161;43.136;24.706;2023-02-15T09:04:01;25.33;;;15.00;;
69878;SDS011;57161;43.136;24.706;2023-02-15T09:06:35;29.23;;;16.10;;
69878;SDS011;57161;43.136;24.706;2023-02-15T09:09:04;26.17;;;15.18;;
69878;SDS011;57161;43.136;24.706;2023-02-15T09:11:32;23.30;;;14.15;;
69878;SDS011;57161;43.136;24.706;2023-02-15T09:14:01;24.63;;;15.32;;
69878;SDS011;57161;43.136;24.706;2023-02-15T09:16:33;26.65;;;15.35;;
69878;SDS011;57161;43.136;24.706;2023-02-15T09:19:00;25.20;;;15.20;;
69878;SDS011;57161;43.136;24.706;2023-02-15T09:21:29;22.88;;;14.52;;
69878;SDS011;57161;43.136;24.706;2023-02-15T09:23:56;26.67;;;15.90;;
69878;SDS011;57161;43.136;24.706;2023-02-15T09:26:27;29.42;;;16.80;;
69878;SDS011;57161;43.136;24.706;2023-02-15T09:28:55;23.25;;;14.70;;
69878;SDS011;57161;43.136;24.706;2023-02-15T09:31:25;24.83;;;15.27;;
69878;SDS011;57161;43.136;24.706;2023-02-15T09:33:53;26.40;;;15.52;;
69878;SDS011;57161;43.136;24.706;2023-02-15T09:36:20;26.10;;;16.25;;
69878;SDS011;57161;43.136;24.706;2023-02-15T09:38:54;26.60;;;16.10;;
69878;SDS011;57161;43.136;24.706;2023-02-15T10:11:42;25.38;;;15.60;;
69878;SDS011;57161;43.136;24.706;2023-02-15T10:17:02;26.85;;;15.90;;
69878;SDS011;57161;43.136;24.706;2023-02-15T10:22:28;26.85;;;15.57;;
69878;SDS011;57161;43.136;24.706;2023-02-15T10:27:39;27.27;;;16.10;;
69878;SDS011;57161;43.136;24.706;2023-02-15T10:30:12;41.35;;;21.27;;
69878;SDS011;57161;43.136;24.706;2023-02-15T10:33:03;26.52;;;16.45;;
69878;SDS011;57161;43.136;24.706;2023-02-15T10:49:34;26.83;;;17.40;;
69878;SDS011;57161;43.136;24.706;2023-02-15T11:00:12;27.50;;;17.10;;
69878;SDS011;57161;43.136;24.706;2023-02-15T11:08:24;27.08;;;18.40;;
69878;SDS011;57161;43.136;24.706;2023-02-15T11:10:56;27.52;;;16.55;;
69878;SDS011;57161;43.136;24.706;2023-02-15T11:13:27;25.65;;;16.77;;
69878;SDS011;57161;43.136;24.706;2023-02-15T11:16:05;25.02;;;16.63;;
69878;SDS011;57161;43.136;24.706;2023-02-15T11:18:43;24.02;;;15.48;;
69878;SDS011;57161;43.136;24.706;2023-02-15T11:23:51;23.38;;;15.52;;
69878;SDS011;57161;43.136;24.706;2023-02-15T11:26:31;28.30;;;18.60;;
69878;SDS011;57161;43.136;24.706;2023-02-15T11:29:01;55.90;;;29.88;;
69878;SDS011;57161;43.136;24.706;2023-02-15T11:31:43;30.65;;;19.17;;
69878;SDS011;57161;43.136;24.706;2023-02-15T11:34:21;25.92;;;16.63;;
69878;SDS011;57161;43.136;24.706;2023-02-15T11:36:54;28.92;;;16.80;;
69878;SDS011;57161;43.136;24.706;2023-02-15T11:39:24;27.67;;;18.85;;
69878;SDS011;57161;43.136;24.706;2023-02-15T11:41:55;29.23;;;16.58;;
69878;SDS011;57161;43.136;24.706;2023-02-15T11:44:26;23.90;;;15.63;;
69878;SDS011;57161;43.136;24.706;2023-02-15T11:46:57;23.58;;;16.27;;
69878;SDS011;57161;43.136;24.706;2023-02-15T11:49:28;20.67;;;14.10;;
69878;SDS011;57161;43.136;24.706;2023-02-15T11:51:55;23.38;;;16.00;;
69878;SDS011;57161;43.136;24.706;2023-02-15T11:54:25;22.20;;;14.65;;
69878;SDS011;57161;43.136;24.706;2023-02-15T11:56:58;23.23;;;15.52;;
69878;SDS011;57161;43.136;24.706;2023-02-15T11:59:40;24.10;;;15.38;;
69878;SDS011;57161;43.136;24.706;2023-02-15T12:02:16;25.02;;;15.38;;
69878;SDS011;57161;43.136;24.706;2023-02-15T12:04:46;25.52;;;15.88;;
69878;SDS011;57161;43.136;24.706;2023-02-15T12:07:19;22.92;;;14.73;;
69878;SDS011;57161;43.136;24.706;2023-02-15T12:12:39;21.00;;;14.60;;
69878;SDS011;57161;43.136;24.706;2023-02-15T12:15:09;23.15;;;16.13;;
69878;SDS011;57161;43.136;24.706;2023-02-15T12:22:38;19.40;;;14.13;;
69878;SDS011;57161;43.136;24.706;2023-02-15T12:25:21;23.15;;;15.57;;
69878;SDS011;57161;43.136;24.706;2023-02-15T12:27:47;22.95;;;14.35;;
69878;SDS011;57161;43.136;24.706;2023-02-15T12:30:23;26.95;;;17.50;;
69878;SDS011;57161;43.136;24.706;2023-02-15T12:32:56;22.95;;;15.75;;
69878;SDS011;57161;43.136;24.706;2023-02-15T12:35:31;21.00;;;14.77;;
69878;SDS011;57161;43.136;24.706;2023-02-15T12:38:01;20.98;;;13.90;;
69878;SDS011;57161;43.136;24.706;2023-02-15T12:40:31;33.87;;;20.63;;
69878;SDS011;57161;43.136;24.706;2023-02-15T12:42:58;22.55;;;15.48;;
69878;SDS011;57161;43.136;24.706;2023-02-15T12:45:34;32.35;;;21.98;;
69878;SDS011;57161;43.136;24.706;2023-02-15T12:53:33;26.77;;;19.45;;
69878;SDS011;57161;43.136;24.706;2023-02-15T12:56:02;56.58;;;32.42;;
69878;SDS011;57161;43.136;24.706;2023-02-15T12:58:35;78.45;;;44.85;;
69878;SDS011;57161;43.136;24.706;2023-02-15T13:05:59;41.65;;;28.75;;
69878;SDS011;57161;43.136;24.706;2023-02-15T13:08:31;31.80;;;21.58;;
69878;SDS011;57161;43.136;24.706;2023-02-15T13:11:03;42.80;;;26.30;;
69878;SDS011;57161;43.136;24.706;2023-02-15T13:13:35;33.10;;;20.02;;
69878;SDS011;57161;43.136;24.706;2023-02-15T13:16:12;32.80;;;20.65;;
69878;SDS011;57161;43.136;24.706;2023-02-15T13:18:43;26.98;;;16.42;;
69878;SDS011;57161;43.136;24.706;2023-02-15T13:24:07;19.65;;;13.95;;
69878;SDS011;57161;43.136;24.706;2023-02-15T13:26:37;22.95;;;15.20;;
69878;SDS011;57161;43.136;24.706;2023-02-15T13:29:07;25.55;;;18.40;;
69878;SDS011;57161;43.136;24.706;2023-02-15T13:31:56;24.27;;;16.13;;
69878;SDS011;57161;43.136;24.706;2023-02-15T13:34:27;29.02;;;19.08;;
69878;SDS011;57161;43.136;24.706;2023-02-15T13:39:51;22.45;;;15.27;;
69878;SDS011;57161;43.136;24.706;2023-02-15T13:42:40;24.60;;;15.75;;
69878;SDS011;57161;43.136;24.706;2023-02-15T13:48:34;21.38;;;14.02;;
69878;SDS011;57161;43.136;24.706;2023-02-15T13:59:46;113.72;;;72.13;;
69878;SDS011;57161;43.136;24.706;2023-02-15T14:02:38;31.25;;;18.85;;
69878;SDS011;57161;43.136;24.706;2023-02-15T14:10:39;50.78;;;31.23;;
69878;SDS011;57161;43.136;24.706;2023-02-15T14:13:29;33.53;;;19.15;;
69878;SDS011;57161;43.136;24.706;2023-02-15T14:18:40;36.80;;;22.67;;
69878;SDS011;57161;43.136;24.706;2023-02-15T14:21:10;113.30;;;51.28;;
69878;SDS011;57161;43.136;24.706;2023-02-15T14:32:25;106.85;;;69.00;;
69878;SDS011;57161;43.136;24.706;2023-02-15T14:35:05;35.03;;;23.70;;
69878;SDS011;57161;43.136;24.706;2023-02-15T14:46:27;27.42;;;18.40;;
69878;SDS011;57161;43.136;24.706;2023-02-15T14:49:17;35.28;;;22.15;;
69878;SDS011;57161;43.136;24.706;2023-02-15T14:56:41;29.90;;;19.23;;
69878;SDS011;57161;43.136;24.706;2023-02-15T15:01:52;38.33;;;22.25;;
69878;SDS011;57161;43.136;24.706;2023-02-15T15:04:38;31.17;;;20.15;;
69878;SDS011;57161;43.136;24.706;2023-02-15T15:10:05;34.20;;;22.60;;
69878;SDS011;57161;43.136;24.706;2023-02-15T15:12:40;36.80;;;19.83;;
69878;SDS011;57161;43.136;24.706;2023-02-15T15:15:12;40.83;;;21.98;;
69878;SDS011;57161;43.136;24.706;2023-02-15T15:18:05;33.65;;;21.27;;
69878;SDS011;57161;43.136;24.706;2023-02-15T15:20:42;52.05;;;28.77;;
69878;SDS011;57161;43.136;24.706;2023-02-15T15:25:52;65.50;;;39.65;;
69878;SDS011;57161;43.136;24.706;2023-02-15T15:31:43;62.88;;;37.10;;
69878;SDS011;57161;43.136;24.706;2023-02-15T15:42:12;57.33;;;35.25;;
69878;SDS011;57161;43.136;24.706;2023-02-15T15:47:55;52.78;;;29.33;;
69878;SDS011;57161;43.136;24.706;2023-02-15T15:50:24;73.63;;;41.67;;
69878;SDS011;57161;43.136;24.706;2023-02-15T15:52:51;119.35;;;61.15;;
69878;SDS011;57161;43.136;24.706;2023-02-15T15:55:19;133.23;;;63.42;;
69878;SDS011;57161;43.136;24.706;2023-02-15T15:57:50;114.55;;;57.53;;
69878;SDS011;57161;43.136;24.706;2023-02-15T16:02:59;78.88;;;48.03;;
69878;SDS011;57161;43.136;24.706;2023-02-15T16:05:25;59.65;;;35.13;;
69878;SDS011;57161;43.136;24.706;2023-02-15T16:07:50;49.38;;;30.13;;
69878;SDS011;57161;43.136;24.706;2023-02-15T16:10:21;55.08;;;33.40;;
69878;SDS011;57161;43.136;24.706;2023-02-15T16:12:50;56.40;;;33.85;;
69878;SDS011;57161;43.136;24.706;2023-02-15T16:15:22;55.95;;;33.38;;
69878;SDS011;57161;43.136;24.706;2023-02-15T16:17:54;58.60;;;36.08;;
69878;SDS011;57161;43.136;24.706;2023-02-15T16:22:52;55.85;;;33.63;;
69878;SDS011;57161;43.136;24.706;2023-02-15T16:28:12;53.72;;;31.92;;
69878;SDS011;57161;43.136;24.706;2023-02-15T16:30:40;57.50;;;31.73;;
69878;SDS011;57161;43.136;24.706;2023-02-15T16:33:14;51.60;;;31.30;;
69878;SDS011;57161;43.136;24.706;2023-02-15T16:36:03;47.25;;;29.95;;
69878;SDS011;57161;43.136;24.706;2023-02-15T16:41:07;46.88;;;29.08;;
69878;SDS011;57161;43.136;24.706;2023-02-15T16:43:34;59.22;;;36.10;;
69878;SDS011;57161;43.136;24.706;2023-02-15T16:46:06;73.43;;;43.33;;
69878;SDS011;57161;43.136;24.706;2023-02-15T16:48:38;77.45;;;45.92;;
69878;SDS011;57161;43.136;24.706;2023-02-15T16:51:06;105.20;;;56.45;;
69878;SDS011;57161;43.136;24.706;2023-02-15T16:53:33;122.57;;;62.78;;
69878;SDS011;57161;43.136;24.706;2023-02-15T16:56:01;116.93;;;62.83;;
69878;SDS011;57161;43.136;24.706;2023-02-15T16:58:40;97.40;;;51.55;;
69878;SDS011;57161;43.136;24.706;2023-02-15T17:01:09;90.85;;;50.67;;
69878;SDS011;57161;43.136;24.706;2023-02-15T17:03:37;98.75;;;51.03;;
69878;SDS011;57161;43.136;24.706;2023-02-15T17:06:04;84.50;;;44.88;;
69878;SDS011;57161;43.136;24.706;2023-02-15T17:08:45;56.70;;;34.28;;
69878;SDS011;57161;43.136;24.706;2023-02-15T17:21:51;193.57;;;94.85;;
69878;SDS011;57161;43.136;24.706;2023-02-15T17:24:22;152.82;;;78.40;;
69878;SDS011;57161;43.136;24.706;2023-02-15T17:27:01;89.50;;;49.85;;
69878;SDS011;57161;43.136;24.706;2023-02-15T17:29:33;79.65;;;46.00;;
69878;SDS011;57161;43.136;24.706;2023-02-15T17:32:14;84.55;;;47.50;;
69878;SDS011;57161;43.136;24.706;2023-02-15T17:37:42;80.95;;;48.58;;
69878;SDS011;57161;43.136;24.706;2023-02-15T17:42:47;59.40;;;36.63;;
69878;SDS011;57161;43.136;24.706;2023-02-15T17:45:13;54.22;;;33.00;;
69878;SDS011;57161;43.136;24.706;2023-02-15T17:47:39;56.92;;;35.53;;
69878;SDS011;57161;43.136;24.706;2023-02-15T17:50:05;57.38;;;35.47;;
69878;SDS011;57161;43.136;24.706;2023-02-15T17:52:32;65.57;;;41.00;;
69878;SDS011;57161;43.136;24.706;2023-02-15T17:54:58;98.07;;;50.58;;
69878;SDS011;57161;43.136;24.706;2023-02-15T17:57:44;90.85;;;47.17;;
69878;SDS011;57161;43.136;24.706;2023-02-15T18:00:12;93.95;;;47.70;;
69878;SDS011;57161;43.136;24.706;2023-02-15T18:02:57;76.10;;;42.40;;
69878;SDS011;57161;43.136;24.706;2023-02-15T18:05:41;56.28;;;31.90;;
69878;SDS011;57161;43.136;24.706;2023-02-15T18:08:26;95.85;;;49.17;;